createdAt,value
2023-03-07T00:01:30.592Z,-0.00
2023-03-07T00:04:00.653Z,0.02
2023-03-07T00:06:31.785Z,0.06
2023-03-07T00:09:03.027Z,0.10
2023-03-07T00:11:31.630Z,0.12
2023-03-07T00:14:11.203Z,0.14
2023-03-07T00:16:39.925Z,0.13
2023-03-07T00:19:09.931Z,0.12
2023-03-07T00:21:39.025Z,0.11
2023-03-07T00:24:10.382Z,0.12
2023-03-07T00:26:39.268Z,0.12
2023-03-07T00:29:09.698Z,0.09
2023-03-07T00:31:39.004Z,0.06
2023-03-07T00:34:07.527Z,0.05
2023-03-07T00:36:36.244Z,0.04
2023-03-07T00:39:08.232Z,0.01
2023-03-07T00:41:39.164Z,-0.00
2023-03-07T00:44:07.729Z,-0.02
2023-03-07T00:46:38.689Z,-0.02
2023-03-07T00:49:07.746Z,-0.03
2023-03-07T00:51:36.022Z,-0.04
2023-03-07T00:54:05.337Z,-0.02
2023-03-07T00:56:34.824Z,0.01
2023-03-07T00:59:03.953Z,0.04
2023-03-07T01:01:32.525Z,0.04
2023-03-07T01:04:01.542Z,0.04
2023-03-07T01:06:33.361Z,0.04
2023-03-07T01:09:06.866Z,0.06
2023-03-07T01:11:37.791Z,0.09
2023-03-07T01:14:06.965Z,0.12
2023-03-07T01:16:38.701Z,0.14
2023-03-07T01:19:12.520Z,0.11
2023-03-07T01:21:43.323Z,0.06
2023-03-07T01:24:15.168Z,0.06
2023-03-07T01:26:44.230Z,0.05
2023-03-07T01:29:15.773Z,0.05
2023-03-07T01:31:44.334Z,0.06
2023-03-07T01:34:12.784Z,0.07
2023-03-07T01:36:43.023Z,0.09
2023-03-07T01:39:17.275Z,0.07
2023-03-07T01:42:12.111Z,0.04
2023-03-07T01:45:10.820Z,0.05
2023-03-07T01:47:49.418Z,0.03
2023-03-07T01:50:18.635Z,-0.06
2023-03-07T01:53:00.123Z,-0.18
2023-03-07T01:55:34.736Z,-0.22
2023-03-07T01:58:14.561Z,-0.23
2023-03-07T02:00:44.891Z,-0.24
2023-03-07T02:03:37.258Z,-0.25
2023-03-07T02:06:21.103Z,-0.29
2023-03-07T02:08:51.330Z,-0.47
2023-03-07T02:11:24.712Z,-0.57
2023-03-07T02:13:56.363Z,-0.65
2023-03-07T02:16:25.633Z,-0.74
2023-03-07T02:18:55.380Z,-0.78
2023-03-07T02:21:54.781Z,-0.82
2023-03-07T02:24:49.778Z,-0.86
2023-03-07T02:27:18.574Z,-0.95
2023-03-07T02:29:47.044Z,-1.02
2023-03-07T02:32:17.265Z,-0.98
2023-03-07T02:34:48.797Z,-0.90
2023-03-07T02:37:32.937Z,-0.84
2023-03-07T02:40:09.112Z,-0.89
2023-03-07T02:42:42.285Z,-0.95
2023-03-07T02:45:18.593Z,-0.99
2023-03-07T02:47:47.643Z,-1.07
2023-03-07T02:50:18.330Z,-1.09
2023-03-07T02:52:50.000Z,-1.05
2023-03-07T02:55:18.875Z,-1.11
2023-03-07T02:57:54.523Z,-1.22
2023-03-07T03:00:23.623Z,-1.27
2023-03-07T03:03:08.377Z,-1.27
2023-03-07T03:05:40.535Z,-1.32
2023-03-07T03:08:09.314Z,-1.45
2023-03-07T03:10:38.523Z,-1.56
2023-03-07T03:13:10.970Z,-1.65
2023-03-07T03:15:40.014Z,-1.70
2023-03-07T03:18:08.706Z,-1.75
2023-03-07T03:20:40.619Z,-1.79
2023-03-07T03:23:10.800Z,-1.83
2023-03-07T03:25:40.254Z,-1.86
2023-03-07T03:28:10.114Z,-1.86
2023-03-07T03:30:39.914Z,-1.84
2023-03-07T03:33:08.696Z,-1.85
2023-03-07T03:35:39.590Z,-1.88
2023-03-07T03:38:08.527Z,-1.94
2023-03-07T03:40:38.939Z,-2.02
2023-03-07T03:43:07.635Z,-2.10
2023-03-07T03:45:37.944Z,-2.15
2023-03-07T03:48:07.999Z,-2.17
2023-03-07T03:50:38.814Z,-2.15
2023-03-07T03:53:07.205Z,-2.09
2023-03-07T03:55:35.567Z,-2.01
2023-03-07T03:58:04.244Z,-1.95
2023-03-07T04:00:34.005Z,-1.95
2023-03-07T04:03:03.038Z,-1.94
2023-03-07T04:05:34.805Z,-1.92
2023-03-07T04:08:03.515Z,-1.85
2023-03-07T04:10:32.593Z,-1.81
2023-03-07T04:13:01.176Z,-1.80
2023-03-07T04:15:30.185Z,-1.79
2023-03-07T04:17:59.278Z,-1.81
2023-03-07T04:20:27.831Z,-1.92
2023-03-07T04:22:56.525Z,-2.00
2023-03-07T04:25:25.620Z,-2.05
2023-03-07T04:27:56.764Z,-2.08
2023-03-07T04:30:25.964Z,-2.10
2023-03-07T04:32:55.161Z,-2.18
2023-03-07T04:35:23.849Z,-2.29
2023-03-07T04:37:53.473Z,-2.39
2023-03-07T04:40:22.055Z,-2.44
2023-03-07T04:42:50.725Z,-2.48
2023-03-07T04:45:21.047Z,-2.53
2023-03-07T04:47:49.935Z,-2.57
2023-03-07T04:50:20.462Z,-2.64
2023-03-07T04:52:50.267Z,-2.74
2023-03-07T04:55:19.685Z,-2.83
2023-03-07T04:57:51.018Z,-2.92
2023-03-07T05:00:20.624Z,-2.96
2023-03-07T05:02:50.757Z,-2.97
2023-03-07T05:05:22.737Z,-3.00
2023-03-07T05:07:51.813Z,-3.01
2023-03-07T05:10:21.382Z,-3.01
2023-03-07T05:12:51.124Z,-3.02
2023-03-07T05:15:19.794Z,-3.02
2023-03-07T05:17:48.514Z,-3.04
2023-03-07T05:20:17.274Z,-3.04
2023-03-07T05:22:46.462Z,-3.04
2023-03-07T05:25:18.233Z,-3.03
2023-03-07T05:27:47.444Z,-3.01
2023-03-07T05:30:16.645Z,-2.99
2023-03-07T05:32:47.393Z,-2.99
2023-03-07T05:35:23.908Z,-2.98
2023-03-07T05:37:53.951Z,-2.96
2023-03-07T05:40:22.640Z,-2.93
2023-03-07T05:42:51.870Z,-2.91
2023-03-07T05:45:22.290Z,-2.90
2023-03-07T05:47:56.182Z,-2.87
2023-03-07T05:50:43.516Z,-2.82
2023-03-07T05:53:19.698Z,-2.82
2023-03-07T05:55:56.624Z,-2.77
2023-03-07T05:58:33.738Z,-2.71
2023-03-07T06:01:19.471Z,-2.67
2023-03-07T06:03:51.529Z,-2.62
2023-03-07T06:06:33.592Z,-2.55
2023-03-07T06:09:11.983Z,-2.48
2023-03-07T06:11:43.945Z,-2.40
2023-03-07T06:14:12.962Z,-2.33
2023-03-07T06:16:47.239Z,-2.23
2023-03-07T06:19:20.436Z,-2.13
2023-03-07T06:21:56.062Z,-2.04
2023-03-07T06:24:25.076Z,-1.93
2023-03-07T06:26:55.399Z,-1.82
2023-03-07T06:29:27.465Z,-1.71
2023-03-07T06:32:00.061Z,-1.62
2023-03-07T06:34:28.924Z,-1.52
2023-03-07T06:36:59.652Z,-1.42
2023-03-07T06:39:31.513Z,-1.30
2023-03-07T06:42:07.289Z,-1.18
2023-03-07T06:44:36.566Z,-1.09
2023-03-07T06:47:05.474Z,-0.97
2023-03-07T06:49:48.298Z,-0.86
2023-03-07T06:52:17.580Z,-0.75
2023-03-07T06:54:51.692Z,-0.63
2023-03-07T06:57:25.612Z,-0.54
2023-03-07T06:59:58.701Z,-0.40
2023-03-07T07:02:37.748Z,-0.21
2023-03-07T07:05:10.301Z,-0.02
2023-03-07T07:07:46.358Z,0.13
2023-03-07T07:10:18.409Z,0.23
2023-03-07T07:12:47.510Z,0.30
2023-03-07T07:15:21.221Z,0.41
2023-03-07T07:17:51.575Z,0.51
2023-03-07T07:20:21.058Z,0.61
2023-03-07T07:22:52.597Z,0.69
2023-03-07T07:25:21.776Z,0.79
2023-03-07T07:27:58.574Z,0.83
2023-03-07T07:30:27.656Z,0.82
2023-03-07T07:33:01.416Z,0.83
2023-03-07T07:35:37.152Z,0.89
2023-03-07T07:38:11.626Z,1.00
2023-03-07T07:40:44.931Z,1.11
2023-03-07T07:43:18.234Z,1.19
2023-03-07T07:45:51.151Z,1.20
2023-03-07T07:48:24.613Z,1.19
2023-03-07T07:51:03.753Z,1.21
2023-03-07T07:53:37.842Z,1.30
2023-03-07T07:56:09.906Z,1.41
2023-03-07T07:58:44.740Z,1.50
2023-03-07T08:01:15.792Z,1.66
2023-03-07T08:03:48.028Z,1.85
2023-03-07T08:06:31.072Z,2.15
2023-03-07T08:09:05.200Z,2.44
2023-03-07T08:11:36.954Z,2.65
2023-03-07T08:14:05.733Z,2.98
2023-03-07T08:16:39.327Z,3.32
2023-03-07T08:19:09.930Z,3.64
2023-03-07T08:21:46.165Z,3.94
2023-03-07T08:24:18.334Z,4.31
2023-03-07T08:26:48.625Z,4.66
2023-03-07T08:29:19.949Z,4.91
2023-03-07T08:31:51.503Z,5.17
2023-03-07T08:34:21.027Z,5.19
2023-03-07T08:36:52.989Z,5.24
2023-03-07T08:39:26.487Z,5.31
2023-03-07T08:41:56.504Z,5.45
2023-03-07T08:44:27.549Z,5.54
2023-03-07T08:47:04.487Z,5.61
2023-03-07T08:49:36.493Z,5.83
2023-03-07T08:52:05.888Z,6.11
2023-03-07T08:54:37.179Z,6.46
2023-03-07T08:57:08.531Z,6.78
2023-03-07T08:59:43.494Z,7.00
2023-03-07T09:02:12.292Z,7.00
2023-03-07T09:04:42.015Z,7.07
2023-03-07T09:07:18.991Z,7.24
2023-03-07T09:09:52.948Z,7.34
2023-03-07T09:12:24.973Z,7.48
2023-03-07T09:14:54.973Z,7.69
2023-03-07T09:17:31.593Z,7.79
2023-03-07T09:20:10.853Z,7.77
2023-03-07T09:22:42.492Z,7.90
2023-03-07T09:25:11.782Z,8.18
2023-03-07T09:27:45.361Z,8.33
2023-03-07T09:30:15.347Z,8.21
2023-03-07T09:32:46.272Z,8.11
2023-03-07T09:35:15.879Z,8.19
2023-03-07T09:37:44.973Z,8.45
2023-03-07T09:40:25.501Z,8.60
2023-03-07T09:43:23.060Z,8.73
2023-03-07T09:46:54.644Z,8.72
2023-03-07T09:49:51.151Z,8.53
2023-03-07T09:52:41.193Z,8.60
2023-03-07T09:55:17.629Z,8.83
2023-03-07T09:58:06.241Z,9.16
2023-03-07T10:00:45.647Z,9.49
2023-03-07T10:03:40.500Z,9.55
2023-03-07T10:06:39.408Z,9.47
2023-03-07T10:09:26.566Z,9.39
2023-03-07T10:12:31.807Z,9.24
2023-03-07T10:15:30.307Z,9.04
2023-03-07T10:18:28.794Z,8.83
2023-03-07T10:21:39.033Z,8.61
2023-03-07T10:24:56.838Z,8.31
2023-03-07T10:27:38.321Z,8.26
2023-03-07T10:30:17.658Z,8.47
2023-03-07T10:33:01.327Z,8.79
2023-03-07T10:35:42.822Z,9.17
2023-03-07T10:38:34.358Z,9.47
2023-03-07T10:41:17.127Z,9.60
2023-03-07T10:43:52.395Z,10.00
2023-03-07T10:46:29.556Z,10.52
2023-03-07T10:49:09.801Z,10.57
2023-03-07T10:52:37.071Z,10.27
2023-03-07T10:55:42.174Z,9.68
2023-03-07T10:58:25.861Z,8.94
2023-03-07T11:01:07.864Z,8.41
2023-03-07T11:03:58.697Z,8.11
2023-03-07T11:06:38.619Z,7.89
2023-03-07T11:09:25.284Z,7.74
2023-03-07T11:12:19.864Z,7.64
2023-03-07T11:15:22.745Z,7.57
2023-03-07T11:17:52.402Z,7.52
2023-03-07T11:20:24.026Z,7.49
2023-03-07T11:23:31.667Z,7.38
2023-03-07T11:26:24.713Z,7.14
2023-03-07T11:29:11.902Z,6.88
2023-03-07T11:32:02.408Z,6.68
2023-03-07T11:35:01.923Z,6.58
2023-03-07T11:38:16.340Z,6.50
2023-03-07T11:41:40.646Z,6.32
2023-03-07T11:45:09.826Z,6.19
2023-03-07T11:48:14.373Z,6.06
2023-03-07T11:50:53.412Z,6.00
2023-03-07T11:54:02.635Z,5.99
2023-03-07T11:56:38.158Z,5.95
2023-03-07T11:59:36.967Z,5.97
2023-03-07T12:02:46.280Z,5.96
2023-03-07T12:05:58.554Z,5.92
2023-03-07T12:08:56.020Z,5.88
2023-03-07T12:11:59.729Z,5.84
2023-03-07T12:14:30.857Z,5.79
2023-03-07T12:17:22.158Z,5.79
2023-03-07T12:20:28.949Z,5.79
2023-03-07T12:23:24.346Z,5.78
2023-03-07T12:26:03.534Z,5.80
2023-03-07T12:28:52.607Z,5.81
2023-03-07T12:31:36.209Z,5.84
2023-03-07T12:34:13.977Z,5.88
2023-03-07T12:37:07.000Z,5.91
2023-03-07T12:39:45.266Z,5.99
2023-03-07T12:42:44.815Z,6.02
2023-03-07T12:45:31.491Z,6.04
2023-03-07T12:48:26.137Z,6.08
2023-03-07T12:51:41.901Z,6.13
2023-03-07T12:54:53.587Z,6.18
2023-03-07T12:57:59.220Z,6.26
2023-03-07T13:01:07.286Z,6.32
2023-03-07T13:04:23.468Z,6.34
2023-03-07T13:07:34.612Z,6.35
2023-03-07T13:10:09.160Z,6.39
2023-03-07T13:12:41.193Z,6.48
2023-03-07T13:15:28.547Z,6.54
2023-03-07T13:18:37.768Z,6.57
2023-03-07T13:21:41.143Z,6.54
2023-03-07T13:24:40.146Z,6.55
2023-03-07T13:27:56.972Z,6.61
2023-03-07T13:30:37.493Z,6.61
2023-03-07T13:33:40.617Z,6.61
2023-03-07T13:36:51.647Z,6.65
2023-03-07T13:40:02.589Z,6.68
2023-03-07T13:42:52.500Z,6.74
2023-03-07T13:46:10.929Z,6.79
2023-03-07T13:49:02.041Z,6.77
2023-03-07T13:51:34.540Z,6.75
2023-03-07T13:54:13.806Z,6.76
2023-03-07T13:56:46.061Z,6.78
2023-03-07T13:59:27.495Z,6.79
2023-03-07T14:02:03.976Z,6.78
2023-03-07T14:04:53.910Z,6.73
2023-03-07T14:07:26.325Z,6.71
2023-03-07T14:10:19.538Z,6.68
2023-03-07T14:13:29.860Z,6.66
2023-03-07T14:16:07.713Z,6.66
2023-03-07T14:18:54.123Z,6.69
2023-03-07T14:22:08.566Z,6.71
2023-03-07T14:25:04.875Z,6.72
2023-03-07T14:28:00.348Z,6.72
2023-03-07T14:30:34.016Z,6.66
2023-03-07T14:33:03.640Z,6.64
2023-03-07T14:35:47.724Z,6.62
2023-03-07T14:38:36.530Z,6.60
2023-03-07T14:41:45.769Z,6.54
2023-03-07T14:44:40.596Z,6.49
2023-03-07T14:47:39.769Z,6.45
2023-03-07T14:51:00.235Z,6.45
2023-03-07T14:53:55.864Z,6.47
2023-03-07T14:56:34.953Z,6.52
2023-03-07T14:59:25.892Z,6.58
2023-03-07T15:01:59.755Z,6.59
2023-03-07T15:04:45.022Z,6.63
2023-03-07T15:07:25.045Z,6.64
2023-03-07T15:09:55.387Z,6.64
2023-03-07T15:12:34.664Z,6.62
2023-03-07T15:15:07.553Z,6.59
2023-03-07T15:17:44.876Z,6.56
2023-03-07T15:20:25.837Z,6.51
2023-03-07T15:23:08.591Z,6.46
2023-03-07T15:25:47.992Z,6.43
2023-03-07T15:28:28.505Z,6.43
2023-03-07T15:31:02.460Z,6.39
2023-03-07T15:33:39.287Z,6.35
2023-03-07T15:36:15.581Z,6.34
2023-03-07T15:38:52.590Z,6.34
2023-03-07T15:41:36.297Z,6.33
2023-03-07T15:44:32.706Z,6.25
2023-03-07T15:47:26.461Z,6.28
2023-03-07T15:50:35.690Z,6.32
2023-03-07T15:53:30.940Z,6.29
2023-03-07T16:00:30.300Z,6.25
2023-03-07T16:03:42.767Z,6.29
2023-03-07T16:06:47.536Z,6.23
2023-03-07T16:09:48.706Z,6.26
2023-03-07T16:12:53.661Z,6.26
2023-03-07T16:15:43.390Z,6.26
2023-03-07T16:18:47.683Z,6.26
2023-03-07T16:21:27.784Z,6.26
2023-03-07T16:24:04.263Z,6.27
2023-03-07T16:26:36.018Z,6.25
2023-03-07T16:29:39.884Z,6.21
2023-03-07T16:32:18.398Z,6.02
2023-03-07T16:35:04.339Z,5.97
2023-03-07T16:37:50.682Z,5.92
2023-03-07T16:40:26.095Z,5.86
2023-03-07T16:43:09.898Z,5.81
2023-03-07T16:46:00.530Z,5.81
2023-03-07T16:48:48.690Z,5.81
2023-03-07T16:51:30.815Z,5.82
2023-03-07T16:54:08.636Z,5.74
2023-03-07T16:56:48.997Z,5.76
2023-03-07T16:59:35.529Z,5.75
2023-03-07T17:02:24.691Z,5.74
2023-03-07T17:04:53.554Z,5.76
2023-03-07T17:07:23.944Z,5.77
2023-03-07T17:09:53.701Z,5.78
2023-03-07T17:12:29.891Z,5.78
2023-03-07T17:15:00.822Z,5.78
2023-03-07T17:17:37.112Z,5.80
2023-03-07T17:20:20.130Z,5.83
2023-03-07T17:22:53.642Z,5.82
2023-03-07T17:25:23.265Z,5.82
2023-03-07T17:28:05.909Z,5.80
2023-03-07T17:30:35.108Z,5.78
2023-03-07T17:33:06.233Z,5.79
2023-03-07T17:35:35.515Z,5.78
2023-03-07T17:38:04.479Z,5.78
2023-03-07T17:40:39.939Z,5.80
2023-03-07T17:43:11.300Z,5.82
2023-03-07T17:45:43.085Z,5.83
2023-03-07T17:48:16.188Z,5.84
2023-03-07T17:50:46.025Z,5.86
2023-03-07T17:53:27.551Z,5.88
2023-03-07T17:56:20.799Z,5.90
2023-03-07T18:02:06.380Z,5.86
2023-03-07T18:04:41.198Z,5.85
2023-03-07T18:07:27.618Z,5.86
2023-03-07T18:10:08.181Z,5.87
2023-03-07T18:12:55.819Z,5.86
2023-03-07T18:15:25.951Z,5.87
2023-03-07T18:17:58.186Z,5.88
2023-03-07T18:20:35.631Z,5.89
2023-03-07T18:23:22.685Z,5.91
2023-03-07T18:26:00.348Z,5.92
2023-03-07T18:28:43.179Z,5.93
2023-03-07T18:31:20.134Z,5.96
2023-03-07T18:33:56.554Z,6.00
2023-03-07T18:36:36.374Z,6.00
2023-03-07T18:39:23.717Z,6.00
2023-03-07T18:42:04.189Z,6.00
2023-03-07T18:44:47.642Z,6.00
2023-03-07T18:47:25.601Z,6.02
2023-03-07T18:50:10.287Z,6.05
2023-03-07T18:52:48.904Z,6.07
2023-03-07T18:55:25.957Z,6.08
2023-03-07T18:58:04.514Z,6.09
2023-03-07T19:00:37.227Z,6.10
2023-03-07T19:03:13.879Z,6.08
2023-03-07T19:05:46.973Z,6.08
2023-03-07T19:08:23.890Z,6.05
2023-03-07T19:11:00.726Z,6.01
2023-03-07T19:13:44.439Z,6.01
2023-03-07T19:16:24.230Z,6.00
2023-03-07T19:18:56.473Z,6.02
2023-03-07T19:21:51.463Z,6.05
2023-03-07T19:24:46.860Z,6.07
2023-03-07T19:27:20.775Z,6.09
2023-03-07T19:30:14.766Z,6.11
2023-03-07T19:36:26.834Z,6.09
2023-03-07T19:39:37.903Z,6.08
2023-03-07T19:42:25.597Z,6.01
2023-03-07T19:48:31.003Z,5.41
2023-03-07T19:51:25.612Z,4.94
2023-03-07T19:54:06.826Z,4.50
2023-03-07T19:56:59.775Z,4.25
2023-03-07T19:59:57.716Z,4.08
2023-03-07T20:03:30.227Z,3.90
2023-03-07T20:06:15.205Z,3.80
2023-03-07T20:08:54.139Z,3.75
2023-03-07T20:11:31.432Z,3.73
2023-03-07T20:14:12.592Z,3.68
2023-03-07T20:17:15.052Z,3.61
2023-03-07T20:19:54.871Z,3.56
2023-03-07T20:22:51.436Z,3.56
2023-03-07T20:25:37.657Z,3.51
2023-03-07T20:28:21.009Z,3.47
2023-03-07T20:31:02.479Z,3.44
2023-03-07T20:33:46.820Z,3.39
2023-03-07T20:37:02.471Z,3.33
2023-03-07T20:39:40.272Z,3.20
2023-03-07T20:42:19.182Z,3.16
2023-03-07T20:44:59.761Z,3.16
2023-03-07T20:47:44.827Z,3.15
2023-03-07T20:50:32.995Z,3.12
2023-03-07T20:53:26.688Z,3.11
2023-03-07T20:56:07.639Z,3.11
2023-03-07T20:58:50.205Z,3.10
2023-03-07T21:01:41.723Z,3.10
2023-03-07T21:04:26.968Z,3.05
2023-03-07T21:07:11.529Z,3.02
2023-03-07T21:10:00.539Z,3.01
2023-03-07T21:12:36.218Z,3.01
2023-03-07T21:15:30.168Z,3.02
2023-03-07T21:18:10.196Z,3.04
2023-03-07T21:20:48.433Z,3.04
2023-03-07T21:28:09.781Z,3.01
2023-03-07T21:31:04.923Z,3.01
2023-03-07T21:33:53.550Z,3.01
2023-03-07T21:36:34.562Z,3.04
2023-03-07T21:39:14.164Z,2.99
2023-03-07T21:42:06.161Z,2.95
2023-03-07T21:44:43.295Z,2.99
2023-03-07T21:47:23.342Z,3.03
2023-03-07T21:50:01.993Z,3.01
2023-03-07T21:52:47.749Z,3.00
2023-03-07T21:55:33.518Z,3.00
2023-03-07T21:58:16.034Z,3.00
2023-03-07T22:01:03.090Z,3.00
2023-03-07T22:03:41.426Z,2.96
2023-03-07T22:06:18.244Z,2.91
2023-03-07T22:08:53.009Z,2.86
2023-03-07T22:11:27.022Z,2.82
2023-03-07T22:14:00.622Z,2.82
2023-03-07T22:16:37.207Z,2.83
2023-03-07T22:19:08.605Z,2.83
2023-03-07T22:21:37.157Z,2.80
2023-03-07T22:24:06.104Z,2.81
2023-03-07T22:26:38.283Z,2.83
2023-03-07T22:29:13.591Z,2.80
2023-03-07T22:31:53.031Z,2.78
2023-03-07T22:34:37.162Z,2.79
2023-03-07T22:37:24.908Z,2.75
2023-03-07T22:40:08.981Z,2.72
2023-03-07T22:42:37.891Z,2.72
2023-03-07T22:45:07.786Z,2.68
2023-03-07T22:47:44.686Z,2.70
2023-03-07T22:50:20.304Z,2.68
2023-03-07T22:53:04.141Z,2.66
2023-03-07T22:55:33.455Z,2.66
2023-03-07T22:58:11.553Z,2.65
2023-03-07T23:00:55.369Z,2.52
2023-03-07T23:03:36.518Z,2.47
2023-03-07T23:06:09.259Z,2.46
2023-03-07T23:08:40.184Z,2.45
2023-03-07T23:11:14.164Z,2.47
2023-03-07T23:13:43.037Z,2.48
2023-03-07T23:16:18.237Z,2.39
2023-03-07T23:18:51.114Z,2.34
2023-03-07T23:21:28.922Z,2.31
2023-03-07T23:24:02.949Z,2.29
2023-03-07T23:26:36.626Z,2.26
2023-03-07T23:29:07.379Z,2.24
2023-03-07T23:31:40.578Z,2.23
2023-03-07T23:34:22.831Z,2.21
2023-03-07T23:36:58.454Z,2.18
2023-03-07T23:39:30.989Z,2.13
2023-03-07T23:42:06.370Z,2.11
2023-03-07T23:44:39.569Z,2.09
2023-03-07T23:47:11.781Z,2.09
2023-03-07T23:49:53.860Z,2.05
2023-03-07T23:52:29.512Z,1.98
2023-03-07T23:54:58.980Z,1.93
2023-03-07T23:57:32.872Z,1.91
